createdAt,value
2022-09-15T00:00:00.955Z,1.80
2022-09-15T00:02:27.722Z,1.83
2022-09-15T00:04:54.440Z,1.48
2022-09-15T00:07:21.085Z,1.45
2022-09-15T00:09:47.740Z,1.52
2022-09-15T00:12:14.399Z,1.55
2022-09-15T00:14:41.076Z,1.70
2022-09-15T00:17:07.833Z,1.75
2022-09-15T00:19:34.545Z,1.42
2022-09-15T00:22:01.237Z,1.50
2022-09-15T00:24:27.898Z,1.60
2022-09-15T00:26:54.574Z,1.77
2022-09-15T00:29:21.161Z,1.60
2022-09-15T00:31:47.816Z,1.50
2022-09-15T00:34:14.491Z,1.50
2022-09-15T00:36:41.165Z,1.60
2022-09-15T00:39:07.901Z,1.58
2022-09-15T00:41:34.954Z,1.63
2022-09-15T00:44:03.593Z,1.65
2022-09-15T00:46:39.935Z,1.63
2022-09-15T00:49:18.506Z,1.75
2022-09-15T00:51:57.061Z,1.48
2022-09-15T00:54:30.956Z,1.90
2022-09-15T00:57:02.066Z,1.73
2022-09-15T00:59:31.854Z,1.60
2022-09-15T01:02:08.500Z,1.30
2022-09-15T01:04:35.280Z,1.60
2022-09-15T01:07:04.761Z,1.40
2022-09-15T01:09:41.981Z,1.58
2022-09-15T01:12:08.629Z,1.30
2022-09-15T01:14:35.302Z,1.90
2022-09-15T01:17:27.979Z,1.50
2022-09-15T01:20:09.711Z,1.70
2022-09-15T01:23:03.338Z,2.17
2022-09-15T01:25:38.991Z,1.50
2022-09-15T01:28:39.460Z,1.70
2022-09-15T01:32:00.132Z,2.05
2022-09-15T01:34:33.289Z,2.45
2022-09-15T01:37:09.541Z,2.00
2022-09-15T01:39:41.486Z,2.40
2022-09-15T01:42:12.607Z,2.42
2022-09-15T01:45:05.099Z,2.47
2022-09-15T01:47:34.002Z,2.60
2022-09-15T01:50:12.267Z,2.42
2022-09-15T01:52:43.136Z,2.00
2022-09-15T01:55:18.447Z,2.23
2022-09-15T01:57:45.501Z,2.00
2022-09-15T02:00:12.757Z,1.92
2022-09-15T02:03:06.045Z,1.80
2022-09-15T02:05:39.999Z,1.80
2022-09-15T02:08:12.983Z,2.00
2022-09-15T02:10:57.845Z,1.70
2022-09-15T02:13:32.322Z,1.80
2022-09-15T02:16:00.596Z,1.70
2022-09-15T02:18:45.234Z,1.63
2022-09-15T02:21:19.677Z,2.05
2022-09-15T02:23:52.966Z,2.00
2022-09-15T02:26:24.789Z,1.90
2022-09-15T02:28:54.613Z,2.58
2022-09-15T02:31:24.981Z,1.98
2022-09-15T02:33:57.556Z,2.00
2022-09-15T02:36:25.820Z,2.47
2022-09-15T02:39:03.557Z,2.50
2022-09-15T02:41:30.241Z,2.15
2022-09-15T02:43:56.882Z,1.73
2022-09-15T02:46:23.527Z,1.88
2022-09-15T02:48:50.296Z,2.33
2022-09-15T02:51:18.316Z,2.65
2022-09-15T02:53:46.285Z,1.60
2022-09-15T02:56:13.563Z,1.55
2022-09-15T02:58:40.208Z,1.75
2022-09-15T03:01:08.178Z,1.50
2022-09-15T03:03:37.078Z,1.40
2022-09-15T03:08:55.387Z,1.30
2022-09-15T03:11:24.192Z,1.55
2022-09-15T03:13:55.661Z,1.60
2022-09-15T03:16:23.055Z,1.75
2022-09-15T03:18:49.780Z,1.33
2022-09-15T03:21:17.252Z,1.70
2022-09-15T03:23:44.557Z,1.38
2022-09-15T03:26:11.962Z,1.50
2022-09-15T03:28:39.032Z,1.60
2022-09-15T03:31:07.412Z,1.65
2022-09-15T03:33:34.484Z,1.45
2022-09-15T03:36:01.419Z,1.60
2022-09-15T03:38:28.069Z,1.42
2022-09-15T03:41:04.455Z,1.70
2022-09-15T03:43:32.338Z,1.55
2022-09-15T03:45:59.396Z,1.55
2022-09-15T03:48:27.407Z,1.40
2022-09-15T03:50:54.052Z,1.50
2022-09-15T03:53:20.914Z,1.33
2022-09-15T03:55:48.826Z,1.60
2022-09-15T03:58:17.408Z,1.40
2022-09-15T04:00:45.690Z,1.33
2022-09-15T04:03:13.419Z,1.75
2022-09-15T04:05:40.636Z,1.10
2022-09-15T04:08:07.284Z,1.27
2022-09-15T04:10:35.001Z,1.17
2022-09-15T04:13:01.873Z,1.30
2022-09-15T04:15:28.498Z,1.25
2022-09-15T04:17:55.681Z,1.23
2022-09-15T04:20:22.335Z,1.75
2022-09-15T04:22:49.289Z,1.27
2022-09-15T04:25:15.984Z,1.20
2022-09-15T04:27:42.877Z,1.17
2022-09-15T04:30:10.567Z,1.23
2022-09-15T04:32:37.233Z,1.52
2022-09-15T04:35:04.903Z,1.20
2022-09-15T04:37:32.218Z,1.35
2022-09-15T04:39:59.525Z,1.40
2022-09-15T04:42:26.277Z,1.23
2022-09-15T04:44:52.994Z,1.00
2022-09-15T04:47:19.635Z,1.15
2022-09-15T04:49:46.859Z,1.20
2022-09-15T04:52:13.533Z,1.33
2022-09-15T04:54:40.183Z,0.80
2022-09-15T04:57:06.946Z,1.23
2022-09-15T04:59:33.714Z,1.20
2022-09-15T05:02:00.425Z,1.60
2022-09-15T05:04:27.215Z,1.40
2022-09-15T05:06:53.865Z,1.23
2022-09-15T05:09:20.736Z,1.45
2022-09-15T05:11:47.382Z,0.95
2022-09-15T05:14:14.069Z,1.30
2022-09-15T05:16:40.794Z,2.28
2022-09-15T05:19:07.436Z,1.20
2022-09-15T05:21:34.102Z,1.20
2022-09-15T05:24:00.899Z,1.00
2022-09-15T05:26:29.178Z,1.13
2022-09-15T05:28:57.156Z,1.30
2022-09-15T05:31:31.008Z,1.05
2022-09-15T05:33:59.797Z,0.98
2022-09-15T05:36:26.487Z,0.90
2022-09-15T05:38:56.430Z,1.10
2022-09-15T05:41:23.998Z,1.45
2022-09-15T05:43:50.988Z,0.95
2022-09-15T05:46:18.988Z,0.98
2022-09-15T05:48:46.252Z,1.10
2022-09-15T05:51:13.542Z,1.10
2022-09-15T05:53:40.346Z,2.13
2022-09-15T05:56:11.768Z,1.35
2022-09-15T05:58:43.057Z,1.08
2022-09-15T06:01:16.666Z,0.93
2022-09-15T06:03:43.856Z,1.38
2022-09-15T06:06:12.090Z,0.82
2022-09-15T06:08:47.040Z,1.23
2022-09-15T06:11:22.718Z,1.85
2022-09-15T06:13:49.992Z,1.17
2022-09-15T06:16:19.553Z,1.60
2022-09-15T06:18:50.943Z,1.15
2022-09-15T06:21:23.746Z,1.20
2022-09-15T06:23:57.924Z,1.00
2022-09-15T06:26:25.373Z,0.95
2022-09-15T06:28:57.843Z,1.10
2022-09-15T06:31:26.180Z,1.17
2022-09-15T06:33:57.497Z,1.20
2022-09-15T06:36:29.440Z,1.10
2022-09-15T06:38:56.878Z,1.30
2022-09-15T06:41:23.674Z,1.48
2022-09-15T06:43:52.084Z,1.20
2022-09-15T06:46:21.335Z,1.50
2022-09-15T06:48:48.605Z,1.15
2022-09-15T06:51:17.824Z,1.00
2022-09-15T06:53:45.337Z,1.23
2022-09-15T06:56:14.564Z,1.13
2022-09-15T06:58:42.733Z,1.50
2022-09-15T07:01:12.514Z,1.58
2022-09-15T07:03:41.547Z,1.50
2022-09-15T07:06:09.931Z,1.60
2022-09-15T07:08:36.560Z,1.08
2022-09-15T07:11:04.089Z,1.70
2022-09-15T07:13:31.143Z,1.25
2022-09-15T07:16:00.466Z,1.45
2022-09-15T07:18:27.369Z,1.63
2022-09-15T07:21:03.145Z,1.40
2022-09-15T07:23:30.069Z,1.38
2022-09-15T07:26:11.500Z,1.80
2022-09-15T07:28:39.268Z,1.45
2022-09-15T07:31:07.389Z,1.10
2022-09-15T07:33:35.354Z,1.23
2022-09-15T07:36:03.177Z,1.20
2022-09-15T07:38:29.822Z,1.27
2022-09-15T07:41:06.673Z,1.20
2022-09-15T07:43:33.625Z,1.20
2022-09-15T07:46:01.495Z,1.30
2022-09-15T07:48:28.453Z,1.25
2022-09-15T07:50:55.215Z,1.63
2022-09-15T07:53:22.080Z,0.98
2022-09-15T07:55:53.327Z,1.30
2022-09-15T07:58:21.104Z,1.08
2022-09-15T08:00:47.854Z,1.17
2022-09-15T08:03:15.568Z,1.38
2022-09-15T08:05:45.417Z,1.20
2022-09-15T08:08:12.678Z,1.30
2022-09-15T08:10:41.353Z,1.00
2022-09-15T08:13:08.452Z,1.08
2022-09-15T08:15:38.698Z,1.27
2022-09-15T08:18:05.952Z,1.65
2022-09-15T08:20:33.385Z,1.30
2022-09-15T08:23:00.095Z,1.27
2022-09-15T08:25:26.893Z,1.05
2022-09-15T08:27:55.003Z,1.10
2022-09-15T08:30:22.636Z,1.20
2022-09-15T08:32:50.326Z,0.98
2022-09-15T08:35:17.611Z,1.92
2022-09-15T08:37:44.272Z,1.67
2022-09-15T08:40:26.687Z,1.00
2022-09-15T08:42:57.533Z,0.95
2022-09-15T08:45:31.730Z,1.20
2022-09-15T08:48:02.850Z,1.33
2022-09-15T08:50:38.908Z,0.98
2022-09-15T08:53:12.862Z,1.40
2022-09-15T08:56:01.706Z,1.15
2022-09-15T08:58:34.443Z,1.10
2022-09-15T09:01:26.485Z,1.10
2022-09-15T09:04:14.546Z,0.93
2022-09-15T09:07:12.374Z,0.60
2022-09-15T09:09:45.680Z,0.70
2022-09-15T09:12:32.452Z,0.98
2022-09-15T09:15:33.790Z,0.93
2022-09-15T09:18:18.582Z,0.90
2022-09-15T09:21:06.035Z,1.10
2022-09-15T09:23:33.728Z,1.30
2022-09-15T09:26:02.134Z,1.20
2022-09-15T09:28:42.150Z,1.10
2022-09-15T09:31:18.536Z,1.20
2022-09-15T09:34:10.333Z,0.98
2022-09-15T09:36:37.422Z,0.98
2022-09-15T09:39:04.729Z,1.20
2022-09-15T09:41:36.392Z,0.90
2022-09-15T09:44:06.639Z,1.17
2022-09-15T09:46:34.426Z,0.98
2022-09-15T09:49:29.403Z,0.77
2022-09-15T09:52:01.395Z,1.20
2022-09-15T09:54:29.173Z,1.55
2022-09-15T09:57:17.236Z,0.77
2022-09-15T09:59:48.725Z,1.20
2022-09-15T10:02:18.808Z,1.15
2022-09-15T10:04:48.522Z,0.85
2022-09-15T10:07:18.054Z,0.80
2022-09-15T10:09:53.677Z,1.30
2022-09-15T10:12:25.173Z,1.10
2022-09-15T10:17:37.413Z,1.10
2022-09-15T10:20:06.950Z,0.73
2022-09-15T10:22:40.212Z,1.17
2022-09-15T10:25:21.607Z,1.30
2022-09-15T10:28:12.211Z,0.90
2022-09-15T10:30:55.387Z,1.50
2022-09-15T10:33:36.774Z,1.60
2022-09-15T10:36:18.605Z,1.65
2022-09-15T10:39:06.018Z,1.65
2022-09-15T10:41:37.625Z,1.60
2022-09-15T10:44:19.546Z,1.38
2022-09-15T10:46:53.627Z,1.20
2022-09-15T10:49:38.945Z,1.15
2022-09-15T10:52:16.524Z,1.75
2022-09-15T10:54:58.069Z,1.23
2022-09-15T10:57:39.870Z,1.27
2022-09-15T11:00:22.652Z,2.00
2022-09-15T11:03:07.888Z,0.88
2022-09-15T11:06:00.175Z,1.08
2022-09-15T11:08:41.917Z,1.15
2022-09-15T11:11:22.522Z,0.95
2022-09-15T11:14:26.277Z,1.42
2022-09-15T11:17:07.578Z,1.30
2022-09-15T11:19:46.153Z,1.30
2022-09-15T11:22:15.600Z,1.38
2022-09-15T11:24:59.149Z,1.13
2022-09-15T11:27:41.212Z,1.48
2022-09-15T11:30:16.351Z,1.10
2022-09-15T11:33:04.479Z,1.33
2022-09-15T11:36:08.633Z,1.50
2022-09-15T11:38:57.580Z,1.15
2022-09-15T11:41:36.999Z,1.42
2022-09-15T11:44:25.181Z,1.10
2022-09-15T11:47:16.235Z,0.68
2022-09-15T11:49:46.197Z,1.30
2022-09-15T11:52:42.868Z,2.00
2022-09-15T11:55:24.824Z,0.80
2022-09-15T11:58:16.332Z,1.00
2022-09-15T12:00:55.724Z,0.82
2022-09-15T12:03:43.151Z,0.80
2022-09-15T12:06:12.748Z,0.57
2022-09-15T12:08:53.447Z,1.00
2022-09-15T12:11:23.081Z,0.73
2022-09-15T12:13:50.767Z,1.08
2022-09-15T12:16:18.691Z,0.93
2022-09-15T12:19:03.117Z,0.95
2022-09-15T12:21:49.020Z,1.63
2022-09-15T12:24:34.269Z,1.77
2022-09-15T12:27:02.295Z,0.90
2022-09-15T12:29:38.098Z,0.77
2022-09-15T12:32:21.794Z,1.25
2022-09-15T12:35:30.096Z,1.00
2022-09-15T12:38:00.457Z,0.77
2022-09-15T12:40:30.075Z,1.50
2022-09-15T12:42:57.433Z,0.82
2022-09-15T12:45:33.768Z,1.20
2022-09-15T12:48:25.624Z,1.00
2022-09-15T12:50:55.830Z,1.35
2022-09-15T12:53:26.842Z,1.20
2022-09-15T12:55:57.189Z,0.60
2022-09-15T12:58:33.241Z,0.88
2022-09-15T13:01:36.778Z,0.82
2022-09-15T13:04:03.469Z,0.88
2022-09-15T13:06:35.049Z,0.95
2022-09-15T13:11:37.201Z,1.10
2022-09-15T13:14:04.091Z,1.42
2022-09-15T13:16:48.731Z,1.10
2022-09-15T13:19:52.852Z,0.93
2022-09-15T13:22:32.013Z,0.93
2022-09-15T13:25:10.804Z,1.52
2022-09-15T13:27:38.724Z,1.02
2022-09-15T13:30:24.133Z,0.98
2022-09-15T13:33:04.009Z,1.73
2022-09-15T13:35:52.596Z,0.90
2022-09-15T13:38:52.064Z,0.90
2022-09-15T13:41:42.281Z,0.90
2022-09-15T13:44:32.445Z,1.02
2022-09-15T13:47:19.935Z,1.10
2022-09-15T13:49:55.708Z,1.35
2022-09-15T13:52:46.520Z,1.02
2022-09-15T13:55:26.194Z,1.00
2022-09-15T14:00:53.543Z,0.95
2022-09-15T14:03:47.124Z,1.25
2022-09-15T14:06:40.977Z,1.17
2022-09-15T14:09:26.626Z,0.93
2022-09-15T14:12:09.530Z,1.20
2022-09-15T14:14:46.453Z,1.13
2022-09-15T14:17:28.718Z,1.00
2022-09-15T14:19:58.092Z,0.85
2022-09-15T14:22:29.264Z,0.93
2022-09-15T14:24:57.209Z,0.88
2022-09-15T14:27:30.425Z,0.82
2022-09-15T14:30:01.010Z,0.80
2022-09-15T14:32:31.426Z,0.85
2022-09-15T14:35:00.514Z,0.65
2022-09-15T14:37:29.301Z,1.33
2022-09-15T14:39:58.402Z,0.93
2022-09-15T14:42:32.332Z,0.80
2022-09-15T14:48:02.469Z,0.80
2022-09-15T14:53:23.030Z,1.23
2022-09-15T14:55:55.665Z,1.10
2022-09-15T14:58:45.944Z,0.88
2022-09-15T15:01:27.030Z,0.90
2022-09-15T15:04:12.296Z,0.70
2022-09-15T15:06:51.353Z,1.05
2022-09-15T15:09:43.950Z,1.30
2022-09-15T15:12:27.645Z,1.17
2022-09-15T15:14:55.586Z,1.10
2022-09-15T15:17:47.852Z,0.80
2022-09-15T15:20:22.667Z,0.93
2022-09-15T15:23:18.461Z,1.27
2022-09-15T15:25:46.982Z,1.23
2022-09-15T15:28:29.851Z,0.90
2022-09-15T15:31:08.002Z,0.93
2022-09-15T15:33:34.821Z,1.20
2022-09-15T15:36:04.630Z,1.42
2022-09-15T15:38:35.441Z,1.02
2022-09-15T15:41:05.054Z,1.13
2022-09-15T15:43:31.883Z,1.23
2022-09-15T15:46:04.449Z,0.95
2022-09-15T15:48:36.850Z,1.15
2022-09-15T15:51:06.580Z,1.48
2022-09-15T15:53:34.263Z,1.17
2022-09-15T15:56:01.131Z,1.15
2022-09-15T15:58:27.801Z,0.93
2022-09-15T16:00:59.242Z,1.10
2022-09-15T16:03:26.110Z,1.00
2022-09-15T16:05:56.782Z,1.15
2022-09-15T16:08:32.513Z,1.37
2022-09-15T16:11:01.608Z,1.10
2022-09-15T16:13:29.038Z,1.20
2022-09-15T16:15:57.859Z,1.02
2022-09-15T16:18:24.815Z,1.05
2022-09-15T16:20:52.073Z,1.50
2022-09-15T16:23:21.142Z,0.77
2022-09-15T16:25:59.434Z,0.68
2022-09-15T16:28:26.198Z,1.33
2022-09-15T16:30:52.833Z,1.00
2022-09-15T16:33:19.751Z,1.25
2022-09-15T16:35:54.987Z,1.15
2022-09-15T16:38:25.305Z,0.90
2022-09-15T16:40:52.668Z,0.75
2022-09-15T16:43:21.524Z,0.73
2022-09-15T16:45:49.483Z,0.93
2022-09-15T16:48:16.542Z,0.80
2022-09-15T16:53:31.004Z,0.68
2022-09-15T16:55:57.863Z,1.13
2022-09-15T16:58:24.509Z,0.68
2022-09-15T17:00:52.517Z,1.08
2022-09-15T17:03:21.627Z,0.98
2022-09-15T17:05:50.538Z,0.82
2022-09-15T17:08:19.112Z,1.10
2022-09-15T17:10:46.575Z,0.80
2022-09-15T17:13:23.943Z,0.80
2022-09-15T17:15:55.880Z,0.80
2022-09-15T17:18:23.219Z,1.23
2022-09-15T17:20:50.778Z,0.82
2022-09-15T17:23:17.411Z,1.20
2022-09-15T17:25:48.992Z,0.90
2022-09-15T17:30:42.613Z,0.90
2022-09-15T17:33:13.204Z,0.82
2022-09-15T17:35:40.246Z,1.00
2022-09-15T17:38:07.432Z,0.90
2022-09-15T17:40:35.054Z,1.13
2022-09-15T17:43:02.461Z,0.88
2022-09-15T17:45:35.257Z,0.90
2022-09-15T17:48:03.005Z,1.08
2022-09-15T17:50:31.496Z,0.90
2022-09-15T17:52:58.186Z,0.98
2022-09-15T17:55:33.191Z,1.25
2022-09-15T17:58:02.048Z,0.85
2022-09-15T18:00:32.080Z,1.00
2022-09-15T18:03:02.145Z,1.00
2022-09-15T18:05:34.909Z,1.13
2022-09-15T18:08:04.886Z,0.70
2022-09-15T18:10:33.843Z,0.90
2022-09-15T18:13:01.269Z,0.95
2022-09-15T18:15:30.348Z,0.90
2022-09-15T18:18:00.460Z,1.02
2022-09-15T18:20:29.412Z,1.20
2022-09-15T18:22:56.910Z,1.08
2022-09-15T18:25:25.478Z,1.00
2022-09-15T18:27:52.456Z,0.75
2022-09-15T18:30:20.164Z,1.10
2022-09-15T18:32:47.391Z,1.00
2022-09-15T18:35:18.681Z,0.95
2022-09-15T18:37:47.013Z,1.08
2022-09-15T18:40:16.812Z,1.17
2022-09-15T18:42:44.146Z,0.95
2022-09-15T18:45:13.837Z,0.80
2022-09-15T18:47:42.430Z,1.27
2022-09-15T18:50:11.234Z,0.80
2022-09-15T18:52:40.194Z,1.15
2022-09-15T18:55:09.082Z,1.20
2022-09-15T18:57:36.611Z,0.98
2022-09-15T19:00:19.149Z,0.75
2022-09-15T19:02:46.505Z,0.63
2022-09-15T19:05:16.557Z,0.63
2022-09-15T19:07:44.611Z,0.90
2022-09-15T19:10:12.628Z,0.93
2022-09-15T19:12:39.985Z,1.20
2022-09-15T19:15:11.995Z,0.90
2022-09-15T19:17:39.638Z,0.57
2022-09-15T19:20:08.278Z,0.70
2022-09-15T19:22:35.737Z,0.85
2022-09-15T19:25:03.236Z,0.80
2022-09-15T19:27:30.162Z,0.93
2022-09-15T19:29:56.813Z,0.80
2022-09-15T19:32:23.891Z,0.73
2022-09-15T19:34:50.816Z,0.90
2022-09-15T19:37:20.308Z,0.75
2022-09-15T19:39:48.536Z,0.90
2022-09-15T19:44:47.885Z,1.30
2022-09-15T19:47:14.917Z,1.20
2022-09-15T19:49:41.540Z,1.17
2022-09-15T19:52:08.464Z,1.38
2022-09-15T19:54:35.177Z,0.80
2022-09-15T19:57:02.166Z,0.98
2022-09-15T19:59:31.370Z,1.30
2022-09-15T20:01:59.229Z,0.80
2022-09-15T20:04:25.989Z,1.30
2022-09-15T20:06:52.627Z,0.95
2022-09-15T20:09:19.437Z,1.20
2022-09-15T20:11:46.352Z,1.50
2022-09-15T20:14:13.536Z,1.08
2022-09-15T20:16:40.413Z,1.30
2022-09-15T20:19:07.144Z,1.08
2022-09-15T20:21:49.790Z,1.23
2022-09-15T20:24:19.568Z,1.13
2022-09-15T20:26:46.420Z,1.00
2022-09-15T20:29:13.294Z,1.05
2022-09-15T20:31:40.416Z,1.27
2022-09-15T20:34:07.129Z,0.90
2022-09-15T20:36:36.581Z,1.20
2022-09-15T20:39:08.770Z,0.98
2022-09-15T20:41:35.568Z,1.67
2022-09-15T20:44:02.446Z,1.08
2022-09-15T20:46:29.367Z,1.33
2022-09-15T20:48:56.049Z,1.80
2022-09-15T20:51:29.429Z,1.98
2022-09-15T20:53:57.532Z,1.75
2022-09-15T20:56:26.328Z,1.30
2022-09-15T20:58:54.496Z,1.15
2022-09-15T21:01:26.940Z,1.40
2022-09-15T21:03:55.303Z,1.08
2022-09-15T21:06:25.197Z,0.85
2022-09-15T21:08:53.070Z,1.15
2022-09-15T21:11:21.120Z,1.10
2022-09-15T21:13:48.507Z,1.70
2022-09-15T21:16:18.532Z,1.10
2022-09-15T21:18:45.773Z,1.20
2022-09-15T21:21:15.276Z,0.95
2022-09-15T21:23:50.258Z,1.13
2022-09-15T21:26:25.502Z,1.25
2022-09-15T21:28:53.381Z,1.27
2022-09-15T21:31:27.222Z,1.40
2022-09-15T21:33:54.918Z,1.25
2022-09-15T21:36:24.541Z,1.33
2022-09-15T21:38:54.097Z,1.60
2022-09-15T21:41:23.300Z,1.70
2022-09-15T21:43:58.905Z,1.80
2022-09-15T21:46:28.510Z,2.55
2022-09-15T21:48:57.473Z,1.50
2022-09-15T21:51:25.858Z,1.30
2022-09-15T21:53:54.463Z,1.27
2022-09-15T21:56:22.123Z,1.00
2022-09-15T21:58:49.244Z,1.48
2022-09-15T22:01:22.046Z,1.60
2022-09-15T22:03:54.092Z,1.70
2022-09-15T22:06:27.401Z,1.80
2022-09-15T22:08:55.102Z,1.20
2022-09-15T22:11:22.359Z,1.30
2022-09-15T22:13:49.322Z,1.13
2022-09-15T22:16:18.425Z,1.40
2022-09-15T22:18:45.467Z,1.35
2022-09-15T22:21:14.929Z,1.08
2022-09-15T22:23:42.573Z,1.40
2022-09-15T22:26:13.246Z,0.95
2022-09-15T22:28:40.584Z,1.15
2022-09-15T22:31:10.198Z,0.90
2022-09-15T22:33:37.675Z,1.05
2022-09-15T22:36:05.980Z,0.98
2022-09-15T22:38:32.622Z,1.10
2022-09-15T22:41:05.092Z,0.98
2022-09-15T22:43:32.096Z,0.95
2022-09-15T22:45:59.068Z,0.90
2022-09-15T22:48:25.732Z,0.90
2022-09-15T22:50:52.393Z,0.90
2022-09-15T22:53:19.146Z,1.02
2022-09-15T22:55:45.855Z,0.80
2022-09-15T22:58:12.490Z,0.88
2022-09-15T23:00:39.261Z,0.68
2022-09-15T23:03:07.107Z,1.13
2022-09-15T23:05:34.423Z,0.95
2022-09-15T23:08:01.502Z,0.70
2022-09-15T23:10:29.489Z,0.88
2022-09-15T23:12:58.760Z,1.23
2022-09-15T23:15:25.410Z,0.80
2022-09-15T23:17:52.279Z,1.05
2022-09-15T23:20:19.042Z,0.90
2022-09-15T23:22:45.797Z,1.30
2022-09-15T23:25:12.914Z,0.77
2022-09-15T23:27:39.551Z,1.00
2022-09-15T23:30:06.562Z,0.80
2022-09-15T23:32:33.227Z,0.95
2022-09-15T23:34:59.845Z,0.93
2022-09-15T23:37:26.524Z,1.10
2022-09-15T23:39:53.186Z,1.13
2022-09-15T23:42:19.837Z,0.80
2022-09-15T23:44:46.529Z,0.88
2022-09-15T23:47:13.236Z,1.55
2022-09-15T23:49:40.051Z,1.10
2022-09-15T23:52:06.666Z,0.90
2022-09-15T23:54:33.359Z,1.15
2022-09-15T23:57:00.007Z,0.55
2022-09-15T23:59:26.621Z,0.70
